createdAt,value
2023-01-07T00:01:08.723Z,5.43
2023-01-07T00:03:38.493Z,5.30
2023-01-07T00:06:07.259Z,6.57
2023-01-07T00:08:36.117Z,6.47
2023-01-07T00:11:04.265Z,4.23
2023-01-07T00:13:32.257Z,7.00
2023-01-07T00:16:00.746Z,6.07
2023-01-07T00:18:29.040Z,4.03
2023-01-07T00:20:59.464Z,3.97
2023-01-07T00:23:27.904Z,4.57
2023-01-07T00:26:01.372Z,4.87
2023-01-07T00:28:29.531Z,9.50
2023-01-07T00:31:00.654Z,4.83
2023-01-07T00:33:29.540Z,4.70
2023-01-07T00:36:03.759Z,6.43
2023-01-07T00:38:31.811Z,4.40
2023-01-07T00:40:59.758Z,5.97
2023-01-07T00:43:27.739Z,4.93
2023-01-07T00:45:55.699Z,4.90
2023-01-07T00:48:24.162Z,3.57
2023-01-07T00:50:53.164Z,4.20
2023-01-07T00:53:22.878Z,6.33
2023-01-07T00:55:51.271Z,4.60
2023-01-07T00:58:21.148Z,4.87
2023-01-07T01:00:49.350Z,7.87
2023-01-07T01:03:17.496Z,5.07
2023-01-07T01:05:45.485Z,5.53
2023-01-07T01:08:13.484Z,5.90
2023-01-07T01:10:42.863Z,7.40
2023-01-07T01:13:11.776Z,7.17
2023-01-07T01:15:43.226Z,6.33
2023-01-07T01:18:11.456Z,5.53
2023-01-07T01:20:39.806Z,7.37
2023-01-07T01:23:08.237Z,8.47
2023-01-07T01:25:36.225Z,9.40
2023-01-07T01:28:05.820Z,9.43
2023-01-07T01:30:33.812Z,8.07
2023-01-07T01:33:01.829Z,8.70
2023-01-07T01:35:29.843Z,6.87
2023-01-07T01:37:57.837Z,9.77
2023-01-07T01:40:29.544Z,7.80
2023-01-07T01:42:57.501Z,8.13
2023-01-07T01:45:26.963Z,8.03
2023-01-07T01:47:56.347Z,14.33
2023-01-07T01:50:26.955Z,7.20
2023-01-07T01:52:56.812Z,7.93
2023-01-07T01:55:27.321Z,7.00
2023-01-07T01:57:56.944Z,7.80
2023-01-07T02:00:26.387Z,8.00
2023-01-07T02:02:57.874Z,7.40
2023-01-07T02:05:26.666Z,7.70
2023-01-07T02:07:54.606Z,7.33
2023-01-07T02:10:23.969Z,7.97
2023-01-07T02:12:58.524Z,8.50
2023-01-07T02:15:34.695Z,8.03
2023-01-07T02:18:12.544Z,9.53
2023-01-07T02:20:48.149Z,9.47
2023-01-07T02:23:30.898Z,11.37
2023-01-07T02:26:21.206Z,9.90
2023-01-07T02:29:01.672Z,9.63
2023-01-07T02:31:37.848Z,7.67
2023-01-07T02:34:08.769Z,8.87
2023-01-07T02:36:39.640Z,7.07
2023-01-07T02:39:17.123Z,7.37
2023-01-07T02:41:49.393Z,6.70
2023-01-07T02:44:21.492Z,8.13
2023-01-07T02:46:52.826Z,7.57
2023-01-07T02:49:22.189Z,7.57
2023-01-07T02:51:52.023Z,7.17
2023-01-07T02:54:22.363Z,8.57
2023-01-07T02:57:10.804Z,6.50
2023-01-07T02:59:46.488Z,6.10
2023-01-07T03:02:20.320Z,7.50
2023-01-07T03:04:59.766Z,7.10
2023-01-07T03:07:34.351Z,6.60
2023-01-07T03:10:04.377Z,7.30
2023-01-07T03:12:34.926Z,7.47
2023-01-07T03:15:06.056Z,8.73
2023-01-07T03:17:38.423Z,8.43
2023-01-07T03:20:09.052Z,7.77
2023-01-07T03:22:38.021Z,7.93
2023-01-07T03:25:07.242Z,7.87
2023-01-07T03:27:36.308Z,7.23
2023-01-07T03:30:06.327Z,8.13
2023-01-07T03:32:39.761Z,11.33
2023-01-07T03:35:09.876Z,9.30
2023-01-07T03:37:38.318Z,10.23
2023-01-07T03:40:10.064Z,10.67
2023-01-07T03:42:42.141Z,9.97
2023-01-07T03:45:12.631Z,9.47
2023-01-07T03:47:41.895Z,9.90
2023-01-07T03:50:11.602Z,8.17
2023-01-07T03:52:39.572Z,8.33
2023-01-07T03:55:08.019Z,10.43
2023-01-07T03:57:36.016Z,8.27
2023-01-07T04:00:04.843Z,9.73
2023-01-07T04:02:32.809Z,9.53
2023-01-07T04:05:00.824Z,8.13
2023-01-07T04:07:30.176Z,7.03
2023-01-07T04:09:58.129Z,9.33
2023-01-07T04:12:26.156Z,9.33
2023-01-07T04:14:54.149Z,6.97
2023-01-07T04:17:22.136Z,6.03
2023-01-07T04:19:50.138Z,6.80
2023-01-07T04:22:18.149Z,5.87
2023-01-07T04:24:47.530Z,5.80
2023-01-07T04:27:15.577Z,5.17
2023-01-07T04:29:43.522Z,7.53
2023-01-07T04:32:11.541Z,5.00
2023-01-07T04:34:39.480Z,7.80
2023-01-07T04:37:07.418Z,4.70
2023-01-07T04:39:35.400Z,3.57
2023-01-07T04:42:04.795Z,2.90
2023-01-07T04:44:32.714Z,3.03
2023-01-07T04:47:00.791Z,2.90
2023-01-07T04:49:28.762Z,3.73
2023-01-07T04:51:56.743Z,3.50
2023-01-07T04:54:24.706Z,3.00
2023-01-07T04:56:52.634Z,5.27
2023-01-07T04:59:22.067Z,2.67
2023-01-07T05:01:50.106Z,3.83
2023-01-07T05:04:18.334Z,3.40
2023-01-07T05:06:46.415Z,4.70
2023-01-07T05:09:14.434Z,3.03
2023-01-07T05:11:42.499Z,3.03
2023-01-07T05:14:12.297Z,3.10
2023-01-07T05:16:41.736Z,6.33
2023-01-07T05:19:10.886Z,2.77
2023-01-07T05:21:38.869Z,3.03
2023-01-07T05:24:06.973Z,2.60
2023-01-07T05:26:34.989Z,3.50
2023-01-07T05:29:02.914Z,2.67
2023-01-07T05:31:30.945Z,2.90
2023-01-07T05:34:00.336Z,2.97
2023-01-07T05:36:28.280Z,2.80
2023-01-07T05:38:56.654Z,2.73
2023-01-07T05:41:24.607Z,2.73
2023-01-07T05:43:52.567Z,3.87
2023-01-07T05:46:20.673Z,2.97
2023-01-07T05:48:48.795Z,2.53
2023-01-07T05:51:18.223Z,3.10
2023-01-07T05:53:46.225Z,3.33
2023-01-07T05:56:14.191Z,3.13
2023-01-07T05:58:42.180Z,4.97
2023-01-07T06:01:10.186Z,3.23
2023-01-07T06:03:38.263Z,3.43
2023-01-07T06:06:08.237Z,3.03
2023-01-07T06:08:37.891Z,3.57
2023-01-07T06:11:06.542Z,3.43
2023-01-07T06:13:34.513Z,3.90
2023-01-07T06:16:02.925Z,3.10
2023-01-07T06:18:30.925Z,4.43
2023-01-07T06:20:59.187Z,2.97
2023-01-07T06:23:27.363Z,3.00
2023-01-07T06:25:56.790Z,4.40
2023-01-07T06:28:24.778Z,3.27
2023-01-07T06:30:52.788Z,3.60
2023-01-07T06:33:20.933Z,4.37
2023-01-07T06:35:48.927Z,8.23
2023-01-07T06:38:16.890Z,3.70
2023-01-07T06:40:45.741Z,3.97
2023-01-07T06:43:15.135Z,3.33
2023-01-07T06:45:43.216Z,4.87
2023-01-07T06:48:11.128Z,4.90
2023-01-07T06:50:39.223Z,4.87
2023-01-07T06:53:07.243Z,4.40
2023-01-07T06:55:35.217Z,3.70
2023-01-07T06:58:03.273Z,3.50
2023-01-07T07:00:32.688Z,3.30
2023-01-07T07:03:00.704Z,4.87
2023-01-07T07:05:29.609Z,4.30
2023-01-07T07:07:58.482Z,3.40
2023-01-07T07:10:26.562Z,4.17
2023-01-07T07:12:54.795Z,4.87
2023-01-07T07:15:22.924Z,5.03
2023-01-07T07:17:52.260Z,5.70
2023-01-07T07:20:20.199Z,2.57
2023-01-07T07:22:48.640Z,2.70
2023-01-07T07:25:16.814Z,3.17
2023-01-07T07:27:46.002Z,2.80
2023-01-07T07:30:15.000Z,3.33
2023-01-07T07:32:42.995Z,4.03
2023-01-07T07:35:12.657Z,3.37
2023-01-07T07:37:40.766Z,4.77
2023-01-07T07:40:09.811Z,3.00
2023-01-07T07:43:10.901Z,6.13
2023-01-07T07:45:26.783Z,1.90
2023-01-07T07:47:54.738Z,2.87
2023-01-07T07:50:24.107Z,2.67
2023-01-07T07:52:52.082Z,2.60
2023-01-07T07:55:26.259Z,4.37
2023-01-07T07:57:54.821Z,2.70
2023-01-07T08:00:22.826Z,2.70
2023-01-07T08:02:50.797Z,2.43
2023-01-07T08:05:19.002Z,1.90
2023-01-07T08:07:48.387Z,3.10
2023-01-07T08:10:16.377Z,2.73
2023-01-07T08:12:44.430Z,2.67
2023-01-07T08:15:12.712Z,1.90
2023-01-07T08:17:40.673Z,2.20
2023-01-07T08:20:09.312Z,2.77
2023-01-07T08:22:37.267Z,2.67
2023-01-07T08:25:07.139Z,2.87
2023-01-07T08:27:35.190Z,2.70
2023-01-07T08:30:03.194Z,2.53
2023-01-07T08:32:31.283Z,2.60
2023-01-07T08:35:01.728Z,3.07
2023-01-07T08:37:30.934Z,3.40
2023-01-07T08:40:00.396Z,4.13
2023-01-07T08:42:32.106Z,4.60
2023-01-07T08:45:00.147Z,3.40
2023-01-07T08:47:28.541Z,3.03
2023-01-07T08:49:56.583Z,4.93
2023-01-07T08:52:25.074Z,3.60
2023-01-07T08:54:53.125Z,3.00
2023-01-07T08:57:21.141Z,3.87
2023-01-07T08:59:50.673Z,3.17
2023-01-07T09:02:19.562Z,3.27
2023-01-07T09:04:47.660Z,4.23
2023-01-07T09:07:15.637Z,3.37
2023-01-07T09:09:44.359Z,5.43
2023-01-07T09:12:12.374Z,3.50
2023-01-07T09:14:40.361Z,3.60
2023-01-07T09:17:09.771Z,6.20
2023-01-07T09:19:37.739Z,4.30
2023-01-07T09:22:05.777Z,3.50
2023-01-07T09:24:33.879Z,3.40
2023-01-07T09:27:01.787Z,3.50
2023-01-07T09:29:29.827Z,4.37
2023-01-07T09:31:57.857Z,4.00
2023-01-07T09:34:27.295Z,6.73
2023-01-07T09:36:55.306Z,3.97
2023-01-07T09:39:23.263Z,4.10
2023-01-07T09:41:57.009Z,4.23
2023-01-07T09:44:28.716Z,3.57
2023-01-07T09:46:57.344Z,4.00
2023-01-07T09:49:27.206Z,4.40
2023-01-07T09:51:58.405Z,3.37
2023-01-07T09:54:30.061Z,5.10
2023-01-07T09:56:58.008Z,3.23
2023-01-07T09:59:25.964Z,4.00
2023-01-07T10:01:56.208Z,2.97
2023-01-07T10:04:30.124Z,2.77
2023-01-07T10:07:03.710Z,3.70
2023-01-07T10:09:37.572Z,4.37
2023-01-07T10:12:08.176Z,2.90
2023-01-07T10:14:44.352Z,2.70
2023-01-07T10:17:19.710Z,2.20
2023-01-07T10:19:51.160Z,2.77
2023-01-07T10:22:23.665Z,2.27
2023-01-07T10:24:54.512Z,2.00
2023-01-07T10:27:29.657Z,2.43
2023-01-07T10:29:58.940Z,6.17
2023-01-07T10:32:30.208Z,1.83
2023-01-07T10:34:58.967Z,2.10
2023-01-07T10:37:30.922Z,3.77
2023-01-07T10:40:04.887Z,1.83
2023-01-07T10:42:34.374Z,2.27
2023-01-07T10:45:20.253Z,4.30
2023-01-07T10:48:01.852Z,2.00
2023-01-07T10:50:47.759Z,3.10
2023-01-07T10:53:22.902Z,2.00
2023-01-07T10:55:54.909Z,2.83
2023-01-07T10:58:23.189Z,2.63
2023-01-07T11:00:51.288Z,3.03
2023-01-07T11:03:21.524Z,2.00
2023-01-07T11:05:52.879Z,2.50
2023-01-07T11:08:26.967Z,3.30
2023-01-07T11:10:54.941Z,2.47
2023-01-07T11:13:24.742Z,2.50
2023-01-07T11:15:54.484Z,2.10
2023-01-07T11:18:23.328Z,7.07
2023-01-07T11:20:52.108Z,8.40
2023-01-07T11:23:21.011Z,9.63
2023-01-07T11:25:50.753Z,4.90
2023-01-07T11:28:19.737Z,4.40
2023-01-07T11:30:56.707Z,5.43
2023-01-07T11:34:02.902Z,2.97
2023-01-07T11:36:14.648Z,2.43
2023-01-07T11:38:42.636Z,3.73
2023-01-07T11:41:21.231Z,5.17
2023-01-07T11:43:50.100Z,3.20
2023-01-07T11:46:21.199Z,7.27
2023-01-07T11:48:52.948Z,3.67
2023-01-07T11:51:22.606Z,2.07
2023-01-07T11:53:55.500Z,2.93
2023-01-07T11:56:33.327Z,3.07
2023-01-07T11:59:23.702Z,2.10
2023-01-07T12:01:52.433Z,2.17
2023-01-07T12:04:24.012Z,3.40
2023-01-07T12:06:53.376Z,2.17
2023-01-07T12:09:26.179Z,2.83
2023-01-07T12:11:56.344Z,2.27
2023-01-07T12:14:26.523Z,2.40
2023-01-07T12:16:55.233Z,3.10
2023-01-07T12:19:31.757Z,2.90
2023-01-07T12:22:13.575Z,2.40
2023-01-07T12:24:59.850Z,2.37
2023-01-07T12:27:33.325Z,2.73
2023-01-07T12:30:07.421Z,4.10
2023-01-07T12:32:41.230Z,2.83
2023-01-07T12:35:14.407Z,2.53
2023-01-07T12:37:45.158Z,3.43
2023-01-07T12:40:19.280Z,2.37
2023-01-07T12:42:51.861Z,3.87
2023-01-07T12:45:23.272Z,2.97
2023-01-07T12:47:55.126Z,2.40
2023-01-07T12:50:25.812Z,4.43
2023-01-07T12:52:56.609Z,4.33
2023-01-07T12:55:27.965Z,3.27
2023-01-07T12:58:06.581Z,2.53
2023-01-07T13:00:37.801Z,3.07
2023-01-07T13:03:11.923Z,4.83
2023-01-07T13:05:43.589Z,2.50
2023-01-07T13:08:14.195Z,4.93
2023-01-07T13:10:42.835Z,2.77
2023-01-07T13:13:14.923Z,2.47
2023-01-07T13:15:42.920Z,1.70
2023-01-07T13:18:15.049Z,3.33
2023-01-07T13:20:48.827Z,2.10
2023-01-07T13:23:20.939Z,2.50
2023-01-07T13:25:54.257Z,2.20
2023-01-07T13:28:30.039Z,3.47
2023-01-07T13:31:13.143Z,3.37
2023-01-07T13:33:45.340Z,2.07
2023-01-07T13:36:20.842Z,4.83
2023-01-07T13:38:58.805Z,2.10
2023-01-07T13:41:35.461Z,2.53
2023-01-07T13:44:10.600Z,3.60
2023-01-07T13:46:41.174Z,3.27
2023-01-07T13:49:22.705Z,1.87
2023-01-07T13:51:50.757Z,2.97
2023-01-07T13:54:33.534Z,2.23
2023-01-07T13:57:21.551Z,2.30
2023-01-07T13:59:52.810Z,3.40
2023-01-07T14:02:22.093Z,2.13
2023-01-07T14:04:51.184Z,1.80
2023-01-07T14:07:19.433Z,2.70
2023-01-07T14:09:47.649Z,2.10
2023-01-07T14:12:32.022Z,1.93
2023-01-07T14:15:13.107Z,2.37
2023-01-07T14:17:44.560Z,2.10
2023-01-07T14:20:15.326Z,1.70
2023-01-07T14:22:46.426Z,4.03
2023-01-07T14:25:29.221Z,3.40
2023-01-07T14:28:17.750Z,3.57
2023-01-07T14:30:48.605Z,1.60
2023-01-07T14:33:20.240Z,1.67
2023-01-07T14:35:54.826Z,2.23
2023-01-07T14:38:42.079Z,5.43
2023-01-07T14:41:11.011Z,1.40
2023-01-07T14:44:01.587Z,1.93
2023-01-07T14:46:47.559Z,3.10
2023-01-07T14:49:33.747Z,2.13
2023-01-07T14:52:04.572Z,2.43
2023-01-07T14:54:50.169Z,1.97
2023-01-07T14:57:21.572Z,3.07
2023-01-07T15:00:19.356Z,1.70
2023-01-07T15:03:09.849Z,2.10
2023-01-07T15:05:49.869Z,3.37
2023-01-07T15:08:37.562Z,1.87
2023-01-07T15:11:23.665Z,2.70
2023-01-07T15:14:13.647Z,3.07
2023-01-07T15:16:41.865Z,4.07
2023-01-07T15:19:11.410Z,2.87
2023-01-07T15:21:45.933Z,2.43
2023-01-07T15:24:16.778Z,5.10
2023-01-07T15:26:49.497Z,2.70
2023-01-07T15:29:23.773Z,5.00
2023-01-07T15:31:56.123Z,5.30
2023-01-07T15:34:28.599Z,3.20
2023-01-07T15:36:56.748Z,4.33
2023-01-07T15:39:26.364Z,5.30
2023-01-07T15:41:55.006Z,3.53
2023-01-07T15:44:23.815Z,2.67
2023-01-07T15:46:52.165Z,4.63
2023-01-07T15:49:22.237Z,5.97
2023-01-07T15:51:53.634Z,4.83
2023-01-07T15:54:29.679Z,2.20
2023-01-07T15:57:00.152Z,2.40
2023-01-07T15:59:29.599Z,2.13
2023-01-07T16:02:01.518Z,2.27
2023-01-07T16:04:32.156Z,5.13
2023-01-07T16:07:01.731Z,3.60
2023-01-07T16:09:34.088Z,2.93
2023-01-07T16:12:02.282Z,2.60
2023-01-07T16:14:37.119Z,2.90
2023-01-07T16:17:06.072Z,4.63
2023-01-07T16:19:34.176Z,2.57
2023-01-07T16:22:04.469Z,2.20
2023-01-07T16:24:32.445Z,4.23
2023-01-07T16:27:05.145Z,3.37
2023-01-07T16:29:37.367Z,3.23
2023-01-07T16:32:07.367Z,3.83
2023-01-07T16:35:05.488Z,2.40
2023-01-07T16:37:37.741Z,2.43
2023-01-07T16:40:06.803Z,1.87
2023-01-07T16:42:34.758Z,4.30
2023-01-07T16:45:04.067Z,2.77
2023-01-07T16:47:33.073Z,3.53
2023-01-07T16:50:21.258Z,2.20
2023-01-07T16:52:54.338Z,2.63
2023-01-07T16:55:37.065Z,2.73
2023-01-07T16:58:04.991Z,2.03
2023-01-07T17:00:32.994Z,1.70
2023-01-07T17:03:01.362Z,3.90
2023-01-07T17:05:30.557Z,3.20
2023-01-07T17:08:02.179Z,3.13
2023-01-07T17:10:31.727Z,2.57
2023-01-07T17:13:01.151Z,2.73
2023-01-07T17:15:39.623Z,3.13
2023-01-07T17:18:26.264Z,2.17
2023-01-07T17:20:54.844Z,2.30
2023-01-07T17:23:42.407Z,2.77
2023-01-07T17:26:18.227Z,2.30
2023-01-07T17:28:47.821Z,2.10
2023-01-07T17:31:16.095Z,2.20
2023-01-07T17:33:44.122Z,4.77
2023-01-07T17:36:15.447Z,2.87
2023-01-07T17:38:45.106Z,1.97
2023-01-07T17:41:34.553Z,2.63
2023-01-07T17:44:01.635Z,2.73
2023-01-07T17:46:30.141Z,3.83
2023-01-07T17:48:58.703Z,2.33
2023-01-07T17:51:27.250Z,2.13
2023-01-07T17:53:57.607Z,2.23
2023-01-07T17:56:25.602Z,3.97
2023-01-07T17:58:55.943Z,3.90
2023-01-07T18:01:24.653Z,3.10
2023-01-07T18:03:52.817Z,3.17
2023-01-07T18:06:22.223Z,2.10
2023-01-07T18:08:51.016Z,2.13
2023-01-07T18:11:38.645Z,2.27
2023-01-07T18:14:06.961Z,4.97
2023-01-07T18:16:34.981Z,3.33
2023-01-07T18:19:02.973Z,2.57
2023-01-07T18:21:31.013Z,2.37
2023-01-07T18:24:00.105Z,4.23
2023-01-07T18:26:29.564Z,1.90
2023-01-07T18:29:00.218Z,4.00
2023-01-07T18:31:28.339Z,3.00
2023-01-07T18:33:56.343Z,1.80
2023-01-07T18:36:24.786Z,2.40
2023-01-07T18:38:53.472Z,2.50
2023-01-07T18:41:21.493Z,4.43
2023-01-07T18:43:50.870Z,3.27
2023-01-07T18:46:19.100Z,3.37
2023-01-07T18:48:47.153Z,3.10
2023-01-07T18:51:15.113Z,3.13
2023-01-07T18:53:43.081Z,3.83
2023-01-07T18:56:13.307Z,2.30
2023-01-07T18:58:44.000Z,2.70
2023-01-07T19:01:13.784Z,3.37
2023-01-07T19:03:42.166Z,4.50
2023-01-07T19:06:10.736Z,2.23
2023-01-07T19:08:39.191Z,5.27
2023-01-07T19:11:08.039Z,3.77
2023-01-07T19:13:36.163Z,5.73
2023-01-07T19:16:06.722Z,2.60
2023-01-07T19:18:36.170Z,4.47
2023-01-07T19:21:04.174Z,4.30
2023-01-07T19:23:32.238Z,3.27
2023-01-07T19:26:00.974Z,2.23
2023-01-07T19:28:33.098Z,2.70
2023-01-07T19:31:01.334Z,3.57
2023-01-07T19:33:29.536Z,3.27
2023-01-07T19:36:03.619Z,2.30
2023-01-07T19:38:31.810Z,4.33
2023-01-07T19:40:59.787Z,2.77
2023-01-07T19:43:27.726Z,2.23
2023-01-07T19:45:56.736Z,1.77
2023-01-07T19:48:26.831Z,3.57
2023-01-07T19:50:55.863Z,3.57
2023-01-07T19:53:25.581Z,2.13
2023-01-07T19:55:54.352Z,1.97
2023-01-07T19:58:22.661Z,1.60
2023-01-07T20:00:50.708Z,3.53
2023-01-07T20:03:18.827Z,2.10
2023-01-07T20:05:46.859Z,3.67
2023-01-07T20:08:14.809Z,2.87
2023-01-07T20:10:44.211Z,3.87
2023-01-07T20:13:12.127Z,3.37
2023-01-07T20:15:40.120Z,2.83
2023-01-07T20:18:08.151Z,3.70
2023-01-07T20:20:36.111Z,4.10
2023-01-07T20:23:04.029Z,2.77
2023-01-07T20:25:32.083Z,2.50
2023-01-07T20:28:01.430Z,4.87
2023-01-07T20:30:29.549Z,3.17
2023-01-07T20:32:57.620Z,4.77
2023-01-07T20:35:25.756Z,2.20
2023-01-07T20:37:53.662Z,3.53
2023-01-07T20:40:22.008Z,2.50
2023-01-07T20:42:49.992Z,1.73
2023-01-07T20:45:19.505Z,5.63
2023-01-07T20:47:47.557Z,1.63
2023-01-07T20:50:17.711Z,2.13
2023-01-07T20:52:45.796Z,2.93
2023-01-07T20:55:13.747Z,1.93
2023-01-07T20:57:41.750Z,1.60
2023-01-07T21:00:10.566Z,2.67
2023-01-07T21:02:40.081Z,2.77
2023-01-07T21:05:08.323Z,2.93
2023-01-07T21:07:36.291Z,2.57
2023-01-07T21:10:04.298Z,3.63
2023-01-07T21:12:32.298Z,3.20
2023-01-07T21:15:00.304Z,1.63
2023-01-07T21:17:28.263Z,2.00
2023-01-07T21:19:57.781Z,2.70
2023-01-07T21:22:25.717Z,6.10
2023-01-07T21:24:53.704Z,1.77
2023-01-07T21:27:21.648Z,4.50
2023-01-07T21:29:51.332Z,1.30
2023-01-07T21:32:19.315Z,2.03
2023-01-07T21:34:47.992Z,2.87
2023-01-07T21:37:17.414Z,1.57
2023-01-07T21:39:45.461Z,3.47
2023-01-07T21:42:13.432Z,1.97
2023-01-07T21:44:41.750Z,1.97
2023-01-07T21:47:09.955Z,1.50
2023-01-07T21:49:37.939Z,2.87
2023-01-07T21:52:05.974Z,2.73
2023-01-07T21:54:35.656Z,3.33
2023-01-07T21:57:03.568Z,4.07
2023-01-07T21:59:31.540Z,4.00
2023-01-07T22:01:59.701Z,1.47
2023-01-07T22:04:28.009Z,1.93
2023-01-07T22:07:05.001Z,1.93
2023-01-07T22:09:33.037Z,2.57
2023-01-07T22:12:02.634Z,3.70
2023-01-07T22:14:30.743Z,1.40
2023-01-07T22:16:58.784Z,1.33
2023-01-07T22:19:26.968Z,2.10
2023-01-07T22:21:54.954Z,1.80
2023-01-07T22:24:22.920Z,1.70
2023-01-07T22:26:50.880Z,2.57
2023-01-07T22:29:20.650Z,1.77
2023-01-07T22:31:51.142Z,4.63
2023-01-07T22:34:19.302Z,1.20
2023-01-07T22:36:49.530Z,3.23
2023-01-07T22:39:18.896Z,2.40
2023-01-07T22:41:47.554Z,1.30
2023-01-07T22:44:16.935Z,1.40
2023-01-07T22:46:47.695Z,1.30
2023-01-07T22:49:16.242Z,1.97
2023-01-07T22:51:47.578Z,1.40
2023-01-07T22:54:16.024Z,1.50
2023-01-07T22:56:44.624Z,3.27
2023-01-07T22:59:13.015Z,2.13
2023-01-07T23:01:41.174Z,1.43
2023-01-07T23:04:10.604Z,2.20
2023-01-07T23:06:38.727Z,2.80
2023-01-07T23:09:06.739Z,1.40
2023-01-07T23:11:50.837Z,1.83
2023-01-07T23:14:19.928Z,1.97
2023-01-07T23:16:48.161Z,2.60
2023-01-07T23:19:17.864Z,1.30
2023-01-07T23:21:47.015Z,2.40
2023-01-07T23:24:15.322Z,1.80
2023-01-07T23:26:43.532Z,1.40
2023-01-07T23:29:11.492Z,1.20
2023-01-07T23:31:39.590Z,3.53
2023-01-07T23:34:07.723Z,2.10
2023-01-07T23:36:38.618Z,5.07
2023-01-07T23:39:06.979Z,2.23
2023-01-07T23:41:34.931Z,1.53
2023-01-07T23:44:03.121Z,1.30
2023-01-07T23:46:31.117Z,3.23
2023-01-07T23:48:59.085Z,1.60
2023-01-07T23:51:27.045Z,3.33
2023-01-07T23:53:56.389Z,2.20
2023-01-07T23:56:24.464Z,2.83
2023-01-07T23:58:52.394Z,1.50
